sensor_id;sensor_type;location;lat;lon;timestamp;P1;durP1;ratioP1;P2;durP2;ratioP2
49828;SDS011;35723;51.194;5.112;2023-06-19T00:00:18;14.68;;;6.55;;
49828;SDS011;35723;51.194;5.112;2023-06-19T00:02:43;12.60;;;6.40;;
49828;SDS011;35723;51.194;5.112;2023-06-19T00:05:09;15.10;;;6.60;;
49828;SDS011;35723;51.194;5.112;2023-06-19T00:07:38;13.00;;;6.47;;
49828;SDS011;35723;51.194;5.112;2023-06-19T00:10:04;12.40;;;6.50;;
49828;SDS011;35723;51.194;5.112;2023-06-19T00:12:31;12.63;;;6.18;;
49828;SDS011;35723;51.194;5.112;2023-06-19T00:14:57;11.43;;;5.97;;
49828;SDS011;35723;51.194;5.112;2023-06-19T00:17:22;11.70;;;5.88;;
49828;SDS011;35723;51.194;5.112;2023-06-19T00:19:50;16.67;;;5.88;;
49828;SDS011;35723;51.194;5.112;2023-06-19T00:22:16;11.23;;;5.90;;
49828;SDS011;35723;51.194;5.112;2023-06-19T00:24:42;14.98;;;5.90;;
49828;SDS011;35723;51.194;5.112;2023-06-19T00:27:07;13.00;;;5.72;;
49828;SDS011;35723;51.194;5.112;2023-06-19T00:29:33;10.68;;;5.15;;
49828;SDS011;35723;51.194;5.112;2023-06-19T00:31:59;9.55;;;5.32;;
49828;SDS011;35723;51.194;5.112;2023-06-19T00:34:25;13.40;;;5.15;;
49828;SDS011;35723;51.194;5.112;2023-06-19T00:36:51;9.75;;;5.10;;
49828;SDS011;35723;51.194;5.112;2023-06-19T00:39:21;12.75;;;5.68;;
49828;SDS011;35723;51.194;5.112;2023-06-19T00:41:47;12.48;;;5.20;;
49828;SDS011;35723;51.194;5.112;2023-06-19T00:44:14;11.80;;;5.20;;
49828;SDS011;35723;51.194;5.112;2023-06-19T00:46:40;13.60;;;5.40;;
49828;SDS011;35723;51.194;5.112;2023-06-19T00:49:06;9.45;;;5.20;;
49828;SDS011;35723;51.194;5.112;2023-06-19T00:51:33;10.07;;;5.03;;
49828;SDS011;35723;51.194;5.112;2023-06-19T00:53:59;14.48;;;5.50;;
49828;SDS011;35723;51.194;5.112;2023-06-19T00:56:25;9.13;;;4.80;;
49828;SDS011;35723;51.194;5.112;2023-06-19T00:58:54;10.55;;;5.05;;
49828;SDS011;35723;51.194;5.112;2023-06-19T01:01:20;12.43;;;4.88;;
49828;SDS011;35723;51.194;5.112;2023-06-19T01:03:48;13.60;;;5.18;;
49828;SDS011;35723;51.194;5.112;2023-06-19T01:06:15;12.57;;;5.10;;
49828;SDS011;35723;51.194;5.112;2023-06-19T01:11:12;9.63;;;4.50;;
49828;SDS011;35723;51.194;5.112;2023-06-19T01:13:48;9.38;;;4.50;;
49828;SDS011;35723;51.194;5.112;2023-06-19T01:16:19;11.15;;;4.85;;
49828;SDS011;35723;51.194;5.112;2023-06-19T01:18:46;9.95;;;4.90;;
49828;SDS011;35723;51.194;5.112;2023-06-19T01:21:12;15.25;;;4.60;;
49828;SDS011;35723;51.194;5.112;2023-06-19T01:23:40;10.32;;;4.63;;
49828;SDS011;35723;51.194;5.112;2023-06-19T01:26:06;13.32;;;4.53;;
49828;SDS011;35723;51.194;5.112;2023-06-19T01:28:32;11.00;;;5.05;;
49828;SDS011;35723;51.194;5.112;2023-06-19T01:31:03;12.20;;;4.93;;
49828;SDS011;35723;51.194;5.112;2023-06-19T01:33:33;9.73;;;4.88;;
49828;SDS011;35723;51.194;5.112;2023-06-19T01:36:02;9.15;;;4.80;;
49828;SDS011;35723;51.194;5.112;2023-06-19T01:38:29;10.48;;;4.57;;
49828;SDS011;35723;51.194;5.112;2023-06-19T01:40:56;8.48;;;4.30;;
49828;SDS011;35723;51.194;5.112;2023-06-19T01:43:24;8.63;;;4.25;;
49828;SDS011;35723;51.194;5.112;2023-06-19T01:45:51;12.82;;;4.80;;
49828;SDS011;35723;51.194;5.112;2023-06-19T01:48:17;8.45;;;4.32;;
49828;SDS011;35723;51.194;5.112;2023-06-19T01:50:46;10.02;;;4.57;;
49828;SDS011;35723;51.194;5.112;2023-06-19T01:53:13;8.82;;;4.45;;
49828;SDS011;35723;51.194;5.112;2023-06-19T01:55:39;10.25;;;4.40;;
49828;SDS011;35723;51.194;5.112;2023-06-19T01:58:04;11.27;;;4.35;;
49828;SDS011;35723;51.194;5.112;2023-06-19T02:00:30;11.32;;;4.30;;
49828;SDS011;35723;51.194;5.112;2023-06-19T02:03:00;9.88;;;4.20;;
49828;SDS011;35723;51.194;5.112;2023-06-19T02:05:31;8.48;;;3.92;;
49828;SDS011;35723;51.194;5.112;2023-06-19T02:07:57;8.57;;;4.03;;
49828;SDS011;35723;51.194;5.112;2023-06-19T02:10:23;7.95;;;3.70;;
49828;SDS011;35723;51.194;5.112;2023-06-19T02:12:49;8.68;;;3.95;;
49828;SDS011;35723;51.194;5.112;2023-06-19T02:15:14;7.78;;;3.90;;
49828;SDS011;35723;51.194;5.112;2023-06-19T02:17:40;8.40;;;4.20;;
49828;SDS011;35723;51.194;5.112;2023-06-19T02:20:07;10.57;;;4.30;;
49828;SDS011;35723;51.194;5.112;2023-06-19T02:22:37;10.18;;;4.15;;
49828;SDS011;35723;51.194;5.112;2023-06-19T02:25:04;11.18;;;4.38;;
49828;SDS011;35723;51.194;5.112;2023-06-19T02:27:30;12.43;;;4.20;;
49828;SDS011;35723;51.194;5.112;2023-06-19T02:29:56;10.02;;;4.20;;
49828;SDS011;35723;51.194;5.112;2023-06-19T02:32:21;9.48;;;4.25;;
49828;SDS011;35723;51.194;5.112;2023-06-19T02:34:47;8.07;;;3.75;;
49828;SDS011;35723;51.194;5.112;2023-06-19T02:37:13;13.10;;;4.30;;
49828;SDS011;35723;51.194;5.112;2023-06-19T02:39:39;9.52;;;3.90;;
49828;SDS011;35723;51.194;5.112;2023-06-19T02:42:04;9.52;;;4.32;;
49828;SDS011;35723;51.194;5.112;2023-06-19T02:44:31;8.65;;;4.20;;
49828;SDS011;35723;51.194;5.112;2023-06-19T02:46:57;8.73;;;4.25;;
49828;SDS011;35723;51.194;5.112;2023-06-19T02:49:23;8.55;;;4.07;;
49828;SDS011;35723;51.194;5.112;2023-06-19T02:51:48;11.45;;;4.35;;
49828;SDS011;35723;51.194;5.112;2023-06-19T02:54:14;9.18;;;4.00;;
49828;SDS011;35723;51.194;5.112;2023-06-19T02:56:39;9.00;;;4.22;;
49828;SDS011;35723;51.194;5.112;2023-06-19T02:59:05;9.93;;;4.63;;
49828;SDS011;35723;51.194;5.112;2023-06-19T03:01:31;11.95;;;4.32;;
49828;SDS011;35723;51.194;5.112;2023-06-19T03:03:56;12.65;;;4.15;;
49828;SDS011;35723;51.194;5.112;2023-06-19T03:06:22;8.68;;;3.90;;
49828;SDS011;35723;51.194;5.112;2023-06-19T03:08:48;9.52;;;3.97;;
49828;SDS011;35723;51.194;5.112;2023-06-19T03:11:13;8.20;;;4.03;;
49828;SDS011;35723;51.194;5.112;2023-06-19T03:13:52;12.02;;;4.82;;
49828;SDS011;35723;51.194;5.112;2023-06-19T03:16:18;10.63;;;4.15;;
49828;SDS011;35723;51.194;5.112;2023-06-19T03:18:45;9.75;;;4.40;;
49828;SDS011;35723;51.194;5.112;2023-06-19T03:21:14;7.90;;;4.13;;
49828;SDS011;35723;51.194;5.112;2023-06-19T03:23:42;14.25;;;4.40;;
49828;SDS011;35723;51.194;5.112;2023-06-19T03:26:08;9.02;;;4.40;;
49828;SDS011;35723;51.194;5.112;2023-06-19T03:28:37;10.32;;;4.07;;
49828;SDS011;35723;51.194;5.112;2023-06-19T03:31:03;11.57;;;4.43;;
49828;SDS011;35723;51.194;5.112;2023-06-19T03:33:28;11.77;;;4.32;;
49828;SDS011;35723;51.194;5.112;2023-06-19T03:35:54;5.70;;;3.58;;
49828;SDS011;35723;51.194;5.112;2023-06-19T03:38:20;8.02;;;3.80;;
49828;SDS011;35723;51.194;5.112;2023-06-19T03:40:46;8.48;;;4.00;;
49828;SDS011;35723;51.194;5.112;2023-06-19T03:43:12;8.68;;;4.10;;
49828;SDS011;35723;51.194;5.112;2023-06-19T03:45:37;9.38;;;4.30;;
49828;SDS011;35723;51.194;5.112;2023-06-19T03:48:03;12.52;;;4.07;;
49828;SDS011;35723;51.194;5.112;2023-06-19T03:50:29;10.20;;;4.03;;
49828;SDS011;35723;51.194;5.112;2023-06-19T03:52:55;10.20;;;4.00;;
49828;SDS011;35723;51.194;5.112;2023-06-19T03:55:20;11.02;;;4.28;;
49828;SDS011;35723;51.194;5.112;2023-06-19T03:57:46;12.57;;;4.10;;
49828;SDS011;35723;51.194;5.112;2023-06-19T04:00:13;12.15;;;4.32;;
49828;SDS011;35723;51.194;5.112;2023-06-19T04:02:39;10.05;;;4.28;;
49828;SDS011;35723;51.194;5.112;2023-06-19T04:05:06;8.27;;;4.05;;
49828;SDS011;35723;51.194;5.112;2023-06-19T04:07:32;8.25;;;4.20;;
49828;SDS011;35723;51.194;5.112;2023-06-19T04:09:58;9.40;;;4.38;;
49828;SDS011;35723;51.194;5.112;2023-06-19T04:12:24;9.02;;;4.20;;
49828;SDS011;35723;51.194;5.112;2023-06-19T04:14:50;11.57;;;4.20;;
49828;SDS011;35723;51.194;5.112;2023-06-19T04:17:16;10.48;;;4.38;;
49828;SDS011;35723;51.194;5.112;2023-06-19T04:19:42;12.70;;;4.30;;
49828;SDS011;35723;51.194;5.112;2023-06-19T04:22:08;12.10;;;4.30;;
49828;SDS011;35723;51.194;5.112;2023-06-19T04:24:34;12.20;;;4.88;;
49828;SDS011;35723;51.194;5.112;2023-06-19T04:27:00;10.75;;;4.32;;
49828;SDS011;35723;51.194;5.112;2023-06-19T04:29:26;8.50;;;4.40;;
49828;SDS011;35723;51.194;5.112;2023-06-19T04:31:56;9.57;;;4.22;;
49828;SDS011;35723;51.194;5.112;2023-06-19T04:34:25;9.05;;;4.22;;
49828;SDS011;35723;51.194;5.112;2023-06-19T04:36:50;10.45;;;4.18;;
49828;SDS011;35723;51.194;5.112;2023-06-19T04:39:17;14.13;;;4.60;;
49828;SDS011;35723;51.194;5.112;2023-06-19T04:41:43;12.85;;;4.70;;
49828;SDS011;35723;51.194;5.112;2023-06-19T04:44:09;11.57;;;4.35;;
49828;SDS011;35723;51.194;5.112;2023-06-19T04:46:37;15.20;;;4.65;;
49828;SDS011;35723;51.194;5.112;2023-06-19T04:49:03;13.05;;;4.72;;
49828;SDS011;35723;51.194;5.112;2023-06-19T04:51:30;11.23;;;4.40;;
49828;SDS011;35723;51.194;5.112;2023-06-19T04:53:57;10.50;;;4.53;;
49828;SDS011;35723;51.194;5.112;2023-06-19T04:56:26;10.35;;;4.43;;
49828;SDS011;35723;51.194;5.112;2023-06-19T04:58:52;13.05;;;4.63;;
49828;SDS011;35723;51.194;5.112;2023-06-19T05:01:21;10.70;;;4.70;;
49828;SDS011;35723;51.194;5.112;2023-06-19T05:03:52;10.18;;;4.68;;
49828;SDS011;35723;51.194;5.112;2023-06-19T05:06:19;13.77;;;4.45;;
49828;SDS011;35723;51.194;5.112;2023-06-19T05:08:45;13.43;;;4.43;;
49828;SDS011;35723;51.194;5.112;2023-06-19T05:11:11;13.15;;;4.70;;
49828;SDS011;35723;51.194;5.112;2023-06-19T05:13:37;9.93;;;4.95;;
49828;SDS011;35723;51.194;5.112;2023-06-19T05:16:02;15.52;;;4.93;;
49828;SDS011;35723;51.194;5.112;2023-06-19T05:18:28;9.25;;;4.57;;
49828;SDS011;35723;51.194;5.112;2023-06-19T05:20:54;13.65;;;4.80;;
49828;SDS011;35723;51.194;5.112;2023-06-19T05:23:19;13.38;;;4.88;;
49828;SDS011;35723;51.194;5.112;2023-06-19T05:25:45;9.02;;;4.57;;
49828;SDS011;35723;51.194;5.112;2023-06-19T05:28:11;12.88;;;4.68;;
49828;SDS011;35723;51.194;5.112;2023-06-19T05:30:36;10.73;;;4.45;;
49828;SDS011;35723;51.194;5.112;2023-06-19T05:33:02;9.57;;;4.65;;
49828;SDS011;35723;51.194;5.112;2023-06-19T05:35:27;12.65;;;4.70;;
49828;SDS011;35723;51.194;5.112;2023-06-19T05:37:55;12.20;;;4.68;;
49828;SDS011;35723;51.194;5.112;2023-06-19T05:40:21;10.15;;;4.68;;
49828;SDS011;35723;51.194;5.112;2023-06-19T05:42:46;12.98;;;4.68;;
49828;SDS011;35723;51.194;5.112;2023-06-19T05:45:12;10.50;;;4.70;;
49828;SDS011;35723;51.194;5.112;2023-06-19T05:47:37;12.00;;;4.63;;
49828;SDS011;35723;51.194;5.112;2023-06-19T05:50:03;17.63;;;4.95;;
49828;SDS011;35723;51.194;5.112;2023-06-19T05:52:29;9.65;;;4.80;;
49828;SDS011;35723;51.194;5.112;2023-06-19T05:54:55;11.10;;;4.97;;
49828;SDS011;35723;51.194;5.112;2023-06-19T05:57:23;15.85;;;5.45;;
49828;SDS011;35723;51.194;5.112;2023-06-19T05:59:48;11.73;;;4.95;;
49828;SDS011;35723;51.194;5.112;2023-06-19T06:02:14;14.27;;;5.30;;
49828;SDS011;35723;51.194;5.112;2023-06-19T06:04:41;9.15;;;4.88;;
49828;SDS011;35723;51.194;5.112;2023-06-19T06:07:07;12.38;;;4.97;;
49828;SDS011;35723;51.194;5.112;2023-06-19T06:09:33;13.70;;;5.63;;
49828;SDS011;35723;51.194;5.112;2023-06-19T06:11:59;9.32;;;4.60;;
49828;SDS011;35723;51.194;5.112;2023-06-19T06:14:25;14.52;;;5.20;;
49828;SDS011;35723;51.194;5.112;2023-06-19T06:16:51;14.20;;;5.50;;
49828;SDS011;35723;51.194;5.112;2023-06-19T06:19:19;10.40;;;5.15;;
49828;SDS011;35723;51.194;5.112;2023-06-19T06:21:45;12.02;;;5.20;;
49828;SDS011;35723;51.194;5.112;2023-06-19T06:24:11;9.88;;;5.10;;
49828;SDS011;35723;51.194;5.112;2023-06-19T06:26:37;13.23;;;5.53;;
49828;SDS011;35723;51.194;5.112;2023-06-19T06:29:02;14.43;;;5.43;;
49828;SDS011;35723;51.194;5.112;2023-06-19T06:31:28;10.40;;;5.18;;
49828;SDS011;35723;51.194;5.112;2023-06-19T06:33:54;12.55;;;5.00;;
49828;SDS011;35723;51.194;5.112;2023-06-19T06:36:19;8.52;;;4.90;;
49828;SDS011;35723;51.194;5.112;2023-06-19T06:38:45;12.45;;;5.68;;
49828;SDS011;35723;51.194;5.112;2023-06-19T06:41:10;9.95;;;5.25;;
49828;SDS011;35723;51.194;5.112;2023-06-19T06:43:36;13.20;;;5.68;;
49828;SDS011;35723;51.194;5.112;2023-06-19T06:46:03;10.82;;;5.60;;
49828;SDS011;35723;51.194;5.112;2023-06-19T06:48:29;12.35;;;5.00;;
49828;SDS011;35723;51.194;5.112;2023-06-19T06:50:55;10.63;;;5.13;;
49828;SDS011;35723;51.194;5.112;2023-06-19T06:53:26;12.23;;;5.50;;
49828;SDS011;35723;51.194;5.112;2023-06-19T06:55:53;12.25;;;4.90;;
49828;SDS011;35723;51.194;5.112;2023-06-19T06:58:19;10.38;;;4.82;;
49828;SDS011;35723;51.194;5.112;2023-06-19T07:00:45;15.38;;;5.40;;
49828;SDS011;35723;51.194;5.112;2023-06-19T07:03:11;11.88;;;5.28;;
49828;SDS011;35723;51.194;5.112;2023-06-19T07:05:36;14.68;;;5.78;;
49828;SDS011;35723;51.194;5.112;2023-06-19T07:08:02;13.88;;;5.25;;
49828;SDS011;35723;51.194;5.112;2023-06-19T07:10:29;16.40;;;5.78;;
49828;SDS011;35723;51.194;5.112;2023-06-19T07:12:55;10.30;;;4.80;;
49828;SDS011;35723;51.194;5.112;2023-06-19T07:15:21;9.23;;;5.30;;
49828;SDS011;35723;51.194;5.112;2023-06-19T07:17:47;12.60;;;5.60;;
49828;SDS011;35723;51.194;5.112;2023-06-19T07:20:13;10.75;;;5.30;;
49828;SDS011;35723;51.194;5.112;2023-06-19T07:22:39;8.57;;;5.20;;
49828;SDS011;35723;51.194;5.112;2023-06-19T07:25:05;11.63;;;5.38;;
49828;SDS011;35723;51.194;5.112;2023-06-19T07:27:31;16.40;;;5.70;;
49828;SDS011;35723;51.194;5.112;2023-06-19T07:29:57;12.63;;;5.57;;
49828;SDS011;35723;51.194;5.112;2023-06-19T07:32:23;14.90;;;6.45;;
49828;SDS011;35723;51.194;5.112;2023-06-19T07:34:48;15.82;;;7.22;;
49828;SDS011;35723;51.194;5.112;2023-06-19T07:37:14;16.52;;;7.10;;
49828;SDS011;35723;51.194;5.112;2023-06-19T07:39:46;14.05;;;7.20;;
49828;SDS011;35723;51.194;5.112;2023-06-19T07:42:13;15.05;;;7.13;;
49828;SDS011;35723;51.194;5.112;2023-06-19T07:44:39;16.58;;;6.50;;
49828;SDS011;35723;51.194;5.112;2023-06-19T07:47:06;21.42;;;8.07;;
49828;SDS011;35723;51.194;5.112;2023-06-19T07:49:33;16.27;;;7.47;;
49828;SDS011;35723;51.194;5.112;2023-06-19T07:51:58;17.33;;;7.82;;
49828;SDS011;35723;51.194;5.112;2023-06-19T07:54:24;18.45;;;7.72;;
49828;SDS011;35723;51.194;5.112;2023-06-19T07:56:50;16.25;;;7.47;;
49828;SDS011;35723;51.194;5.112;2023-06-19T07:59:15;16.35;;;8.02;;
49828;SDS011;35723;51.194;5.112;2023-06-19T08:01:42;20.63;;;7.78;;
49828;SDS011;35723;51.194;5.112;2023-06-19T08:04:08;16.38;;;6.80;;
49828;SDS011;35723;51.194;5.112;2023-06-19T08:06:33;16.70;;;7.80;;
49828;SDS011;35723;51.194;5.112;2023-06-19T08:08:59;17.00;;;9.13;;
49828;SDS011;35723;51.194;5.112;2023-06-19T08:11:25;18.35;;;9.02;;
49828;SDS011;35723;51.194;5.112;2023-06-19T08:13:50;16.35;;;8.80;;
49828;SDS011;35723;51.194;5.112;2023-06-19T08:16:16;19.02;;;9.27;;
49828;SDS011;35723;51.194;5.112;2023-06-19T08:18:43;18.83;;;9.85;;
49828;SDS011;35723;51.194;5.112;2023-06-19T08:21:09;15.77;;;8.43;;
49828;SDS011;35723;51.194;5.112;2023-06-19T08:23:35;17.83;;;8.50;;
49828;SDS011;35723;51.194;5.112;2023-06-19T08:26:02;18.38;;;8.43;;
49828;SDS011;35723;51.194;5.112;2023-06-19T08:28:28;17.30;;;8.25;;
49828;SDS011;35723;51.194;5.112;2023-06-19T08:30:56;17.25;;;8.00;;
49828;SDS011;35723;51.194;5.112;2023-06-19T08:33:21;17.35;;;8.27;;
49828;SDS011;35723;51.194;5.112;2023-06-19T08:35:47;17.98;;;9.38;;
49828;SDS011;35723;51.194;5.112;2023-06-19T08:38:13;17.10;;;9.15;;
49828;SDS011;35723;51.194;5.112;2023-06-19T08:40:40;17.92;;;8.48;;
49828;SDS011;35723;51.194;5.112;2023-06-19T08:43:09;21.15;;;7.95;;
49828;SDS011;35723;51.194;5.112;2023-06-19T08:45:35;17.17;;;8.50;;
49828;SDS011;35723;51.194;5.112;2023-06-19T08:48:01;21.52;;;9.70;;
49828;SDS011;35723;51.194;5.112;2023-06-19T08:50:29;19.42;;;9.35;;
49828;SDS011;35723;51.194;5.112;2023-06-19T08:52:57;17.67;;;9.55;;
49828;SDS011;35723;51.194;5.112;2023-06-19T08:55:23;16.27;;;8.52;;
49828;SDS011;35723;51.194;5.112;2023-06-19T08:57:50;17.65;;;8.85;;
49828;SDS011;35723;51.194;5.112;2023-06-19T09:00:24;16.25;;;8.68;;
49828;SDS011;35723;51.194;5.112;2023-06-19T09:02:59;18.30;;;8.55;;
49828;SDS011;35723;51.194;5.112;2023-06-19T09:05:28;15.93;;;8.45;;
49828;SDS011;35723;51.194;5.112;2023-06-19T09:07:58;16.75;;;8.65;;
49828;SDS011;35723;51.194;5.112;2023-06-19T09:10:26;19.75;;;9.40;;
49828;SDS011;35723;51.194;5.112;2023-06-19T09:15:30;17.65;;;8.50;;
49828;SDS011;35723;51.194;5.112;2023-06-19T09:18:04;16.58;;;8.68;;
49828;SDS011;35723;51.194;5.112;2023-06-19T09:20:34;14.70;;;8.07;;
49828;SDS011;35723;51.194;5.112;2023-06-19T09:23:04;17.88;;;8.15;;
49828;SDS011;35723;51.194;5.112;2023-06-19T09:25:30;16.63;;;8.27;;
49828;SDS011;35723;51.194;5.112;2023-06-19T09:27:56;18.08;;;7.93;;
49828;SDS011;35723;51.194;5.112;2023-06-19T09:30:22;15.93;;;7.07;;
49828;SDS011;35723;51.194;5.112;2023-06-19T09:32:48;17.83;;;8.10;;
49828;SDS011;35723;51.194;5.112;2023-06-19T09:35:14;16.10;;;7.22;;
49828;SDS011;35723;51.194;5.112;2023-06-19T09:37:40;18.63;;;7.63;;
49828;SDS011;35723;51.194;5.112;2023-06-19T09:40:07;16.38;;;7.35;;
49828;SDS011;35723;51.194;5.112;2023-06-19T09:42:42;18.27;;;7.95;;
49828;SDS011;35723;51.194;5.112;2023-06-19T09:45:10;17.63;;;8.13;;
49828;SDS011;35723;51.194;5.112;2023-06-19T09:47:46;20.00;;;8.25;;
49828;SDS011;35723;51.194;5.112;2023-06-19T09:50:14;19.67;;;8.48;;
49828;SDS011;35723;51.194;5.112;2023-06-19T09:52:41;19.25;;;9.20;;
49828;SDS011;35723;51.194;5.112;2023-06-19T09:55:09;19.10;;;9.13;;
49828;SDS011;35723;51.194;5.112;2023-06-19T09:57:38;18.80;;;8.52;;
49828;SDS011;35723;51.194;5.112;2023-06-19T10:00:05;17.55;;;9.23;;
49828;SDS011;35723;51.194;5.112;2023-06-19T10:02:46;18.85;;;9.43;;
49828;SDS011;35723;51.194;5.112;2023-06-19T10:05:13;18.73;;;8.27;;
49828;SDS011;35723;51.194;5.112;2023-06-19T10:07:43;16.55;;;8.80;;
49828;SDS011;35723;51.194;5.112;2023-06-19T10:10:11;17.83;;;8.82;;
49828;SDS011;35723;51.194;5.112;2023-06-19T10:12:48;20.40;;;9.43;;
49828;SDS011;35723;51.194;5.112;2023-06-19T10:15:17;19.90;;;8.82;;
49828;SDS011;35723;51.194;5.112;2023-06-19T10:17:48;16.83;;;7.95;;
49828;SDS011;35723;51.194;5.112;2023-06-19T10:23:07;17.88;;;8.90;;
49828;SDS011;35723;51.194;5.112;2023-06-19T10:25:34;20.73;;;9.90;;
49828;SDS011;35723;51.194;5.112;2023-06-19T10:28:02;18.05;;;8.98;;
49828;SDS011;35723;51.194;5.112;2023-06-19T10:30:32;16.65;;;7.68;;
49828;SDS011;35723;51.194;5.112;2023-06-19T10:32:59;17.48;;;8.10;;
49828;SDS011;35723;51.194;5.112;2023-06-19T10:35:29;20.77;;;8.20;;
49828;SDS011;35723;51.194;5.112;2023-06-19T10:38:03;18.88;;;7.53;;
49828;SDS011;35723;51.194;5.112;2023-06-19T10:40:29;16.02;;;8.18;;
49828;SDS011;35723;51.194;5.112;2023-06-19T10:42:55;14.80;;;7.20;;
49828;SDS011;35723;51.194;5.112;2023-06-19T10:45:21;17.92;;;7.35;;
49828;SDS011;35723;51.194;5.112;2023-06-19T10:47:53;17.17;;;7.40;;
49828;SDS011;35723;51.194;5.112;2023-06-19T10:50:19;14.68;;;7.35;;
49828;SDS011;35723;51.194;5.112;2023-06-19T10:52:46;16.05;;;7.05;;
49828;SDS011;35723;51.194;5.112;2023-06-19T10:55:13;18.05;;;8.30;;
49828;SDS011;35723;51.194;5.112;2023-06-19T10:57:48;17.20;;;7.80;;
49828;SDS011;35723;51.194;5.112;2023-06-19T11:00:28;15.40;;;7.13;;
49828;SDS011;35723;51.194;5.112;2023-06-19T11:02:56;13.63;;;6.68;;
49828;SDS011;35723;51.194;5.112;2023-06-19T11:05:23;13.40;;;6.88;;
49828;SDS011;35723;51.194;5.112;2023-06-19T11:07:57;15.13;;;6.90;;
49828;SDS011;35723;51.194;5.112;2023-06-19T11:10:24;15.07;;;6.63;;
49828;SDS011;35723;51.194;5.112;2023-06-19T11:12:53;17.55;;;7.53;;
49828;SDS011;35723;51.194;5.112;2023-06-19T11:15:23;15.90;;;7.60;;
49828;SDS011;35723;51.194;5.112;2023-06-19T11:17:56;14.98;;;7.10;;
49828;SDS011;35723;51.194;5.112;2023-06-19T11:20:23;15.48;;;6.95;;
49828;SDS011;35723;51.194;5.112;2023-06-19T11:22:54;16.17;;;6.70;;
49828;SDS011;35723;51.194;5.112;2023-06-19T11:25:23;15.05;;;7.22;;
49828;SDS011;35723;51.194;5.112;2023-06-19T11:28:00;17.58;;;7.70;;
49828;SDS011;35723;51.194;5.112;2023-06-19T11:30:32;15.05;;;6.80;;
49828;SDS011;35723;51.194;5.112;2023-06-19T11:32:59;12.73;;;6.20;;
49828;SDS011;35723;51.194;5.112;2023-06-19T11:35:25;13.25;;;6.10;;
49828;SDS011;35723;51.194;5.112;2023-06-19T11:37:59;14.93;;;6.57;;
49828;SDS011;35723;51.194;5.112;2023-06-19T11:40:25;16.60;;;6.95;;
49828;SDS011;35723;51.194;5.112;2023-06-19T11:42:53;16.23;;;6.85;;
49828;SDS011;35723;51.194;5.112;2023-06-19T11:45:20;15.98;;;7.00;;
49828;SDS011;35723;51.194;5.112;2023-06-19T11:47:46;13.40;;;6.60;;
49828;SDS011;35723;51.194;5.112;2023-06-19T11:50:14;13.77;;;6.55;;
49828;SDS011;35723;51.194;5.112;2023-06-19T11:52:41;12.70;;;6.07;;
49828;SDS011;35723;51.194;5.112;2023-06-19T11:55:09;16.42;;;6.30;;
49828;SDS011;35723;51.194;5.112;2023-06-19T11:57:35;16.55;;;6.15;;
49828;SDS011;35723;51.194;5.112;2023-06-19T12:00:00;16.40;;;6.65;;
49828;SDS011;35723;51.194;5.112;2023-06-19T12:02:26;16.88;;;7.22;;
49828;SDS011;35723;51.194;5.112;2023-06-19T12:04:52;17.20;;;6.82;;
49828;SDS011;35723;51.194;5.112;2023-06-19T12:07:18;15.57;;;6.50;;
49828;SDS011;35723;51.194;5.112;2023-06-19T12:09:44;15.45;;;6.40;;
49828;SDS011;35723;51.194;5.112;2023-06-19T12:12:10;13.45;;;6.03;;
49828;SDS011;35723;51.194;5.112;2023-06-19T12:14:36;13.52;;;6.07;;
49828;SDS011;35723;51.194;5.112;2023-06-19T12:17:02;13.43;;;5.97;;
49828;SDS011;35723;51.194;5.112;2023-06-19T12:19:28;14.07;;;6.05;;
49828;SDS011;35723;51.194;5.112;2023-06-19T12:21:53;15.35;;;6.25;;
49828;SDS011;35723;51.194;5.112;2023-06-19T12:24:19;14.32;;;6.60;;
49828;SDS011;35723;51.194;5.112;2023-06-19T12:26:45;13.98;;;5.97;;
49828;SDS011;35723;51.194;5.112;2023-06-19T12:29:10;17.38;;;6.65;;
49828;SDS011;35723;51.194;5.112;2023-06-19T12:31:36;12.43;;;6.10;;
49828;SDS011;35723;51.194;5.112;2023-06-19T12:34:02;12.55;;;5.68;;
49828;SDS011;35723;51.194;5.112;2023-06-19T12:36:28;15.30;;;6.00;;
49828;SDS011;35723;51.194;5.112;2023-06-19T12:38:56;10.70;;;5.43;;
49828;SDS011;35723;51.194;5.112;2023-06-19T12:41:23;14.55;;;6.00;;
49828;SDS011;35723;51.194;5.112;2023-06-19T12:43:49;12.00;;;5.80;;
49828;SDS011;35723;51.194;5.112;2023-06-19T12:46:14;11.32;;;5.97;;
49828;SDS011;35723;51.194;5.112;2023-06-19T12:48:40;12.70;;;5.65;;
49828;SDS011;35723;51.194;5.112;2023-06-19T12:51:06;14.50;;;5.80;;
49828;SDS011;35723;51.194;5.112;2023-06-19T12:53:32;14.20;;;5.70;;
49828;SDS011;35723;51.194;5.112;2023-06-19T12:55:58;13.88;;;6.00;;
49828;SDS011;35723;51.194;5.112;2023-06-19T12:58:24;15.02;;;5.65;;
49828;SDS011;35723;51.194;5.112;2023-06-19T13:00:50;13.65;;;5.70;;
49828;SDS011;35723;51.194;5.112;2023-06-19T13:03:16;13.95;;;5.43;;
49828;SDS011;35723;51.194;5.112;2023-06-19T13:05:43;14.07;;;6.18;;
49828;SDS011;35723;51.194;5.112;2023-06-19T13:08:09;14.80;;;6.10;;
49828;SDS011;35723;51.194;5.112;2023-06-19T13:10:35;16.42;;;5.90;;
49828;SDS011;35723;51.194;5.112;2023-06-19T13:13:01;10.10;;;5.50;;
49828;SDS011;35723;51.194;5.112;2023-06-19T13:15:26;10.77;;;5.20;;
49828;SDS011;35723;51.194;5.112;2023-06-19T13:17:53;13.43;;;5.55;;
49828;SDS011;35723;51.194;5.112;2023-06-19T13:20:18;13.23;;;5.57;;
49828;SDS011;35723;51.194;5.112;2023-06-19T13:22:44;13.10;;;5.75;;
49828;SDS011;35723;51.194;5.112;2023-06-19T13:25:10;13.85;;;5.40;;
49828;SDS011;35723;51.194;5.112;2023-06-19T13:27:35;14.23;;;5.82;;
49828;SDS011;35723;51.194;5.112;2023-06-19T13:30:02;12.02;;;5.30;;
49828;SDS011;35723;51.194;5.112;2023-06-19T13:32:28;12.88;;;5.80;;
49828;SDS011;35723;51.194;5.112;2023-06-19T13:34:53;13.43;;;5.30;;
49828;SDS011;35723;51.194;5.112;2023-06-19T13:37:20;13.43;;;5.70;;
49828;SDS011;35723;51.194;5.112;2023-06-19T13:39:45;13.98;;;5.90;;
49828;SDS011;35723;51.194;5.112;2023-06-19T13:42:11;13.85;;;5.97;;
49828;SDS011;35723;51.194;5.112;2023-06-19T13:44:37;12.35;;;5.10;;
49828;SDS011;35723;51.194;5.112;2023-06-19T13:47:03;11.55;;;5.40;;
49828;SDS011;35723;51.194;5.112;2023-06-19T13:49:29;13.55;;;5.78;;
49828;SDS011;35723;51.194;5.112;2023-06-19T13:51:55;14.13;;;5.85;;
49828;SDS011;35723;51.194;5.112;2023-06-19T13:54:21;11.98;;;5.65;;
49828;SDS011;35723;51.194;5.112;2023-06-19T13:56:47;12.80;;;5.55;;
49828;SDS011;35723;51.194;5.112;2023-06-19T13:59:13;12.48;;;5.65;;
49828;SDS011;35723;51.194;5.112;2023-06-19T14:01:39;11.32;;;5.75;;
49828;SDS011;35723;51.194;5.112;2023-06-19T14:04:06;13.00;;;5.72;;
49828;SDS011;35723;51.194;5.112;2023-06-19T14:06:33;9.95;;;5.25;;
49828;SDS011;35723;51.194;5.112;2023-06-19T14:09:00;12.90;;;5.28;;
49828;SDS011;35723;51.194;5.112;2023-06-19T14:11:26;10.80;;;5.32;;
49828;SDS011;35723;51.194;5.112;2023-06-19T14:13:54;12.50;;;5.70;;
49828;SDS011;35723;51.194;5.112;2023-06-19T14:16:19;11.45;;;5.47;;
49828;SDS011;35723;51.194;5.112;2023-06-19T14:18:45;15.40;;;5.90;;
49828;SDS011;35723;51.194;5.112;2023-06-19T14:21:11;14.52;;;6.18;;
49828;SDS011;35723;51.194;5.112;2023-06-19T14:23:36;12.40;;;5.40;;
49828;SDS011;35723;51.194;5.112;2023-06-19T14:26:07;10.82;;;5.47;;
49828;SDS011;35723;51.194;5.112;2023-06-19T14:28:34;14.63;;;5.75;;
49828;SDS011;35723;51.194;5.112;2023-06-19T14:31:01;11.35;;;5.47;;
49828;SDS011;35723;51.194;5.112;2023-06-19T14:33:27;11.90;;;5.68;;
49828;SDS011;35723;51.194;5.112;2023-06-19T14:35:52;12.43;;;5.68;;
49828;SDS011;35723;51.194;5.112;2023-06-19T14:38:18;13.27;;;6.30;;
49828;SDS011;35723;51.194;5.112;2023-06-19T14:40:44;12.30;;;5.88;;